Trafford, Alabama
Current Conditions -  °F | °C
As of 8:53 PM on Wednesday 26 Nov 2014 (Local Time) from KBHM Reporting Station
Overcast Overcast  
Wind Chill: 51°   Ceiling: 10000
Heat Index: 51°   Visibility: 10mi
Dew Point: 32°   Wind: 17mph
Humidity: 48%   Direction: 290°WNW
Pressure: 30.13"   Gusts: 22mph
Location:  33.82°N, 86.74°W
Report Text: KBHM 270253Z 29015G19KT 10SM FEW055 SCT080 OVC100 11/00 A3013 RMK AO2 RAE0159 SLP204 P0000 60000 T01060000 53017
Loading
Personal Weather Stations






























Interactive Weather Map New forecast layout! Learn more

10-Day Weather Forecast

Advertisements
Track Severe Weather on mobile